Capitol Logistics 942

Operating for DHL



EDDK
Cologne Bonn Airport
Cologne, DE
LJLJ
Ljubljana Jože Pu?nik Airport
Ljubljana, SI

Activity Log

Date Flight Route Aircraft Duration
No Flights Yet

Route Details

Aircraft Information
Group: European Fleet
Types: A30F,A31F,B738
Route Data
Demand: M
Distance: 403nm
Duration: 1h 39m
Recm'd Route: KUMI9B KUMIK L603 LATLO OBEDI LUMUS LUMU1R
Origin Wx: EDDK 270620Z AUTO 26013KT 3400 -RADZ BR BKN008 13/12 Q1020 RERA TEMPO RADZ
Dest. Wx: LJLJ 270630Z VRB02KT 9999 FEW060 19/15 Q1021 NOSIG
Notes:

Financial History
Total Freight: 0lbs
Average Load: 0lbs/flt
Fuel Used: 0lbs
Avg. Fuel Used: 0lbs/flt
Fuel Expense: $0
Avg. Fuel Expense: $0
Avg. Fuel Cost: $0/lbs
Total Gross Income: $0
Pilot Pay: $0
Total Expenses: $0
Total Revenue: $0
Average Revenue: $0